GSPO2: Great Salt Plains Lake

Data processed at Fri Mar 09 2018 23:36


All information presented herein is the property of the government of the United States of America and may be revised or deleted at any time without prior notice.
Dissemination of this information without the expressed written consent of the Public Affairs Office, Tulsa District U.S. Army Corps of Engineers is strictly prohibited.
These data are gathered electronically and, as presented, have not undergone any form of quality control. These data are not guaranteed to be valid or correct.
Go to home page.
Go to station list.

Upstream stations:

Downstream station:
Previous Day
Next Day
Current Day
    
SHEF ID:       GSPO2     Great Salt Plains Lake
STATION TYPE:  RESERVOIR
Normal Pool:  Bottom =  1110.00, Top =  1125.00

               PRECIP  RIV-FLOW ELEVATION   STORAGE    INFLOW   RELEASE  AIR-TEMP  WIND-DIRWIND-SPEED REL-HUMID SOLAR-RAD   VOLTAGE  BAT-LOAD
                   in       cfs        ft     ac-ft       cfs       cfs         F       deg       mph         %      W/m2      volt      volt
              Ccp-Rev  Regi-Rev   Ccp-Rev   Ccp-Rev  Regi-Rev  Regi-Rev   Ccp-Rev   Ccp-Rev   Ccp-Rev   Ccp-Rev   Ccp-Rev   Ccp-Rev   Ccp-Rev
(US/Central)
03/07 00:00      0.00      ----   1125.20     28490      1119        87     35.15    310.60      4.50     48.64      0.00     13.58      ----
03/07 01:00      0.00      ----   1125.13     27762      1074        71     34.02    317.00      5.00     51.82      0.00     13.58      ----
03/07 02:00      0.00      ----   1125.20     28490      1028        71     31.93    318.00      5.00     57.72      0.00     13.58      ----
03/07 03:00      0.00      ----   1125.23     28802       712        99     30.34    308.90      5.30     64.43      0.00     13.58      ----
03/07 04:00      0.00      ----   1125.17     28178       381        91     28.96    308.90      5.90     68.95      0.00     13.57      ----
03/07 05:00      0.00      ----   1125.20     28490        49        82     27.39    317.80      5.50     71.82      0.00     13.58      ----
03/07 06:00      0.00      ----   1125.18     28282        33        85     25.88    322.90      5.20     74.21      0.00     13.57      ----
03/07 07:00      0.00      ----   1125.11     27554        16        60     24.75    322.70      4.50     76.19      0.00     13.57      ----
03/07 08:00      0.00      ----   1125.21     28594         0        41     25.25    304.90      4.60     75.32     90.00     13.57      ----
03/07 09:00      0.00      ----   1125.16     28074       129        54     28.20    275.10      8.20     70.68    337.60     13.57      ----
03/07 10:00      0.00      ----   1125.22     28698       481        85     33.78    310.30      6.80     56.90    545.60     13.57      ----
03/07 11:00      0.00      ----   1125.17     28178       481        88     39.54    325.10      8.10     40.10    749.00     13.57      ----
03/07 12:00      0.00      ----   1125.13     27762       492        63     43.65    315.20      7.90     29.99    873.90     13.57      ----
03/07 13:00      0.00      ----   1125.20     28490       503        71     46.94    309.90      9.40     24.08    923.90     13.57      ----
03/07 14:00      0.00      ----   1125.18     28282       374        85     49.37    301.60      8.50     22.20    899.00     13.25      ----
03/07 15:00      0.00      ----   1125.22     28698        22        91     50.47    266.90      7.80     23.80    798.50     13.57      ----
03/07 16:00      0.00      ----   1125.20     28490        22        77     51.10    249.60     10.60     27.49    633.80     13.58      ----
03/07 17:00      0.00      ----   1125.17     28178        11        63     53.02    249.80      8.00     22.09    421.80     13.58      ----
03/07 18:00      0.00      ----   1125.12     27658        11        60     54.10    247.30      5.60     20.18    186.60     13.58      ----
03/07 19:00      0.00      ----   1125.14     27866        22        54     51.51    155.60      2.40     20.21      8.40     13.58      ----
03/07 20:00      0.00      ----   1125.14     27866        34        60     44.80    124.80      1.30     29.03      0.00     13.58      ----
03/07 21:00      0.00      ----   1125.12     27658        34        52     44.87    149.00      4.00     28.65      0.00     13.58      ----
03/07 22:00      0.00      ----   1125.16     28074        34        57     43.52    168.10      5.50     30.56      0.00     13.58      ----
03/07 23:00      0.00      ----   1125.19     28386        27        76     43.72    174.00      7.20     30.99      0.00     13.58      ----